Time,TemperatureF,DewpointF,PressureIn,WindDirection,WindDirectionDegrees,WindSpeedMPH,WindSpeedGustMPH,Humidity,HourlyPrecipIn,Conditions,Clouds,dailyrainin,SoftwareType,DateUTC
2013-01-27 00:13:00,29.6,18.0,30.25,ESE,119,3.0,9.0,62,0.00,,,0.00,weatherlink.com 1.10,2013-01-27 06:13:00,
2013-01-27 00:28:00,29.7,18.0,30.24,SE,134,8.0,9.0,63,0.00,,,0.00,weatherlink.com 1.10,2013-01-27 06:28:00,
2013-01-27 00:44:00,30.0,19.0,30.25,ESE,122,5.0,11.0,63,0.00,,,0.00,weatherlink.com 1.10,2013-01-27 06:44:00,
2013-01-27 00:59:00,30.3,19.0,30.23,ESE,119,4.0,11.0,63,0.00,,,0.00,weatherlink.com 1.10,2013-01-27 06:59:00,
2013-01-27 01:14:00,30.6,19.0,30.24,ESE,109,9.0,12.0,62,0.00,,,0.00,weatherlink.com 1.10,2013-01-27 07:14:00,
2013-01-27 01:29:00,30.8,19.0,30.25,SSE,165,6.0,11.0,62,0.00,,,0.00,weatherlink.com 1.10,2013-01-27 07:29:00,
2013-01-27 01:44:00,31.2,19.0,30.23,SE,144,6.0,13.0,62,0.00,,,0.00,weatherlink.com 1.10,2013-01-27 07:44:00,
2013-01-27 01:59:00,31.6,20.0,30.24,SE,134,8.0,13.0,62,0.00,,,0.00,weatherlink.com 1.10,2013-01-27 07:59:00,
2013-01-27 02:14:00,31.7,20.0,30.25,SE,139,7.0,11.0,61,0.00,,,0.00,weatherlink.com 1.10,2013-01-27 08:14:00,
2013-01-27 02:29:00,31.8,20.0,30.24,ESE,119,7.0,10.0,61,0.00,,,0.00,weatherlink.com 1.10,2013-01-27 08:29:00,
2013-01-27 02:44:00,32.0,20.0,30.22,SE,143,4.0,10.0,61,0.00,,,0.00,weatherlink.com 1.10,2013-01-27 08:44:00,
2013-01-27 02:59:00,32.3,20.0,30.21,ESE,107,5.0,15.0,60,0.00,,,0.00,weatherlink.com 1.10,2013-01-27 08:59:00,
2013-01-27 03:14:00,32.6,20.0,30.21,SE,139,8.0,13.0,61,0.00,,,0.00,weatherlink.com 1.10,2013-01-27 09:14:00,
2013-01-27 03:29:00,33.0,21.0,30.20,SE,145,13.0,13.0,61,0.00,,,0.00,weatherlink.com 1.10,2013-01-27 09:29:00,
2013-01-27 03:44:00,33.0,22.0,30.20,SE,142,6.0,15.0,64,0.00,,,0.00,weatherlink.com 1.10,2013-01-27 09:44:00,
2013-01-27 03:59:00,32.6,23.0,30.20,SSE,156,9.0,14.0,67,0.00,,,0.00,weatherlink.com 1.10,2013-01-27 09:59:00,
2013-01-27 04:14:00,31.7,24.0,30.20,ESE,122,11.0,13.0,73,0.00,,,0.00,weatherlink.com 1.10,2013-01-27 10:14:00,
2013-01-27 04:29:00,31.2,25.0,30.19,ESE,119,7.0,12.0,78,0.00,,,0.00,weatherlink.com 1.10,2013-01-27 10:29:00,
2013-01-27 04:44:00,31.0,26.0,30.18,SE,146,9.0,12.0,81,0.01,,,0.01,weatherlink.com 1.10,2013-01-27 10:44:00,
2013-01-27 04:59:00,30.9,26.0,30.17,SE,136,5.0,12.0,83,0.01,,,0.01,weatherlink.com 1.10,2013-01-27 10:59:00,
2013-01-27 05:14:00,30.8,27.0,30.16,SE,128,9.0,13.0,84,0.01,,,0.01,weatherlink.com 1.10,2013-01-27 11:14:00,
2013-01-27 05:29:00,30.9,27.0,30.15,SE,138,6.0,16.0,85,0.01,,,0.01,weatherlink.com 1.10,2013-01-27 11:29:00,
2013-01-27 05:44:00,31.1,27.0,30.14,SE,127,10.0,15.0,86,0.00,,,0.01,weatherlink.com 1.10,2013-01-27 11:44:00,
2013-01-27 05:59:00,31.2,28.0,30.14,SE,145,6.0,14.0,88,0.01,,,0.02,weatherlink.com 1.10,2013-01-27 11:59:00,
2013-01-27 06:14:00,31.5,28.0,30.14,ESE,113,9.0,17.0,88,0.01,,,0.02,weatherlink.com 1.10,2013-01-27 12:14:00,
2013-01-27 06:29:00,31.6,29.0,30.16,SE,134,6.0,12.0,89,0.01,,,0.02,weatherlink.com 1.10,2013-01-27 12:29:00,
2013-01-27 06:44:00,31.6,29.0,30.16,SE,146,5.0,10.0,90,0.02,,,0.03,weatherlink.com 1.10,2013-01-27 12:44:00,
2013-01-27 06:59:00,31.6,29.0,30.16,SE,130,7.0,12.0,91,0.02,,,0.04,weatherlink.com 1.10,2013-01-27 12:59:00,
2013-01-27 07:14:00,31.6,30.0,30.16,ESE,123,9.0,12.0,92,0.05,,,0.07,weatherlink.com 1.10,2013-01-27 13:14:00,
2013-01-27 07:29:00,31.6,30.0,30.15,ESE,111,7.0,11.0,93,0.05,,,0.07,weatherlink.com 1.10,2013-01-27 13:29:00,
2013-01-27 07:44:00,31.7,30.0,30.13,SE,142,8.0,10.0,93,0.04,,,0.07,weatherlink.com 1.10,2013-01-27 13:44:00,
2013-01-27 07:59:00,31.9,30.0,30.13,SSE,148,8.0,13.0,94,0.02,,,0.07,weatherlink.com 1.10,2013-01-27 13:59:00,
2013-01-27 08:15:00,32.1,31.0,30.13,SE,135,6.0,14.0,94,0.01,,,0.08,weatherlink.com 1.10,2013-01-27 14:15:00,
2013-01-27 08:30:00,32.3,31.0,30.12,ESE,112,5.0,14.0,94,0.02,,,0.09,weatherlink.com 1.10,2013-01-27 14:30:00,
2013-01-27 08:45:00,32.6,31.0,30.11,SE,146,10.0,14.0,94,0.02,,,0.09,weatherlink.com 1.10,2013-01-27 14:45:00,
2013-01-27 09:00:00,32.9,31.0,30.11,SSE,157,8.0,13.0,94,0.03,,,0.10,weatherlink.com 1.10,2013-01-27 15:00:00,
2013-01-27 09:15:00,33.1,32.0,30.10,SSE,157,10.0,16.0,94,0.04,,,0.12,weatherlink.com 1.10,2013-01-27 15:15:00,
2013-01-27 09:30:00,33.3,32.0,30.10,SE,138,12.0,14.0,94,0.04,,,0.13,weatherlink.com 1.10,2013-01-27 15:30:00,
2013-01-27 09:45:00,33.7,32.0,30.09,SE,130,10.0,17.0,94,0.05,,,0.14,weatherlink.com 1.10,2013-01-27 15:45:00,
2013-01-27 10:15:00,34.9,34.0,30.09,SE,142,7.0,18.0,95,0.03,,,0.15,weatherlink.com 1.10,2013-01-27 16:15:00,
2013-01-27 10:30:00,35.4,34.0,30.08,SE,127,10.0,17.0,94,0.02,,,0.15,weatherlink.com 1.10,2013-01-27 16:30:00,
2013-01-27 10:45:00,35.8,35.0,30.08,SSE,159,8.0,16.0,95,0.01,,,0.15,weatherlink.com 1.10,2013-01-27 16:45:00,
2013-01-27 11:00:00,36.2,35.0,30.07,SSE,155,5.0,16.0,95,0.00,,,0.15,weatherlink.com 1.10,2013-01-27 17:00:00,
2013-01-27 11:15:00,36.4,35.0,30.05,SSE,149,10.0,13.0,95,0.00,,,0.15,weatherlink.com 1.10,2013-01-27 17:15:00,
2013-01-27 11:30:00,36.9,36.0,30.04,SE,136,10.0,14.0,95,0.00,,,0.15,weatherlink.com 1.10,2013-01-27 17:30:00,
2013-01-27 11:45:00,37.4,36.0,30.03,SSE,149,10.0,14.0,95,0.00,,,0.15,weatherlink.com 1.10,2013-01-27 17:45:00,
2013-01-27 12:00:00,37.9,37.0,30.02,SSE,157,7.0,15.0,95,0.00,,,0.15,weatherlink.com 1.10,2013-01-27 18:00:00,
2013-01-27 12:15:00,38.4,37.0,30.00,SE,144,8.0,15.0,96,0.00,,,0.15,weatherlink.com 1.10,2013-01-27 18:15:00,
2013-01-27 12:30:00,39.0,38.0,29.99,SE,143,10.0,15.0,96,0.00,,,0.15,weatherlink.com 1.10,2013-01-27 18:30:00,
2013-01-27 12:45:00,39.6,39.0,29.98,SSE,166,7.0,15.0,96,0.00,,,0.15,weatherlink.com 1.10,2013-01-27 18:45:00,
2013-01-27 13:00:00,40.3,39.0,29.97,South,172,7.0,15.0,96,0.00,,,0.15,weatherlink.com 1.10,2013-01-27 19:00:00,
2013-01-27 13:15:00,41.1,40.0,29.96,SSE,157,6.0,12.0,96,0.00,,,0.15,weatherlink.com 1.10,2013-01-27 19:15:00,
2013-01-27 13:30:00,42.0,41.0,29.95,SSE,167,7.0,12.0,96,0.00,,,0.15,weatherlink.com 1.10,2013-01-27 19:30:00,
2013-01-27 13:46:00,43.0,42.0,29.94,SSE,168,6.0,13.0,96,0.00,,,0.15,weatherlink.com 1.10,2013-01-27 19:46:00,
2013-01-27 14:01:00,44.4,43.0,29.94,South,174,8.0,15.0,95,0.00,,,0.15,weatherlink.com 1.10,2013-01-27 20:01:00,
2013-01-27 14:16:00,45.2,43.0,29.94,South,179,9.0,21.0,93,0.00,,,0.15,weatherlink.com 1.10,2013-01-27 20:16:00,
2013-01-27 14:31:00,45.7,44.0,29.94,South,185,6.0,14.0,92,0.00,,,0.15,weatherlink.com 1.10,2013-01-27 20:31:00,
2013-01-27 14:46:00,46.0,44.0,29.93,South,175,5.0,13.0,91,0.00,,,0.15,weatherlink.com 1.10,2013-01-27 20:46:00,
2013-01-27 15:01:00,46.3,44.0,29.93,South,180,7.0,12.0,91,0.00,,,0.15,weatherlink.com 1.10,2013-01-27 21:01:00,
2013-01-27 15:16:00,46.7,44.0,29.93,SE,140,7.0,8.0,90,0.00,,,0.15,weatherlink.com 1.10,2013-01-27 21:16:00,
2013-01-27 15:31:00,46.9,44.0,29.92,SSE,154,6.0,10.0,90,0.00,,,0.15,weatherlink.com 1.10,2013-01-27 21:31:00,
2013-01-27 15:46:00,47.0,44.0,29.91,SSE,161,7.0,8.0,90,0.00,,,0.15,weatherlink.com 1.10,2013-01-27 21:46:00,
2013-01-27 16:01:00,47.4,45.0,29.90,SSE,164,8.0,10.0,90,0.00,,,0.15,weatherlink.com 1.10,2013-01-27 22:01:00,
2013-01-27 16:16:00,47.9,45.0,29.89,SE,146,6.0,11.0,89,0.00,,,0.15,weatherlink.com 1.10,2013-01-27 22:16:00,
2013-01-27 16:31:00,48.5,45.0,29.89,SSW,199,5.0,12.0,88,0.00,,,0.15,weatherlink.com 1.10,2013-01-27 22:31:00,
2013-01-27 16:46:00,48.8,45.0,29.89,SSE,164,7.0,11.0,87,0.00,,,0.15,weatherlink.com 1.10,2013-01-27 22:46:00,
2013-01-27 17:01:00,49.4,45.0,29.88,South,175,8.0,17.0,86,0.00,,,0.15,weatherlink.com 1.10,2013-01-27 23:01:00,
2013-01-27 17:16:00,49.5,46.0,29.88,SSE,166,8.0,11.0,86,0.00,,,0.15,weatherlink.com 1.10,2013-01-27 23:16:00,
2013-01-27 17:31:00,49.9,46.0,29.89,South,184,10.0,13.0,87,0.00,,,0.15,weatherlink.com 1.10,2013-01-27 23:31:00,
2013-01-27 17:46:00,50.6,47.0,29.89,SSW,196,7.0,16.0,87,0.00,,,0.15,weatherlink.com 1.10,2013-01-27 23:46:00,
2013-01-27 18:01:00,50.8,47.0,29.89,SSE,163,8.0,16.0,88,0.00,,,0.15,weatherlink.com 1.10,2013-01-28 00:01:00,
2013-01-27 18:16:00,51.2,48.0,29.89,South,178,8.0,15.0,88,0.00,,,0.15,weatherlink.com 1.10,2013-01-28 00:16:00,
2013-01-27 18:31:00,51.4,48.0,29.89,South,171,7.0,15.0,88,0.00,,,0.15,weatherlink.com 1.10,2013-01-28 00:31:00,
2013-01-27 18:46:00,51.4,48.0,29.89,SSW,193,8.0,19.0,89,0.00,,,0.15,weatherlink.com 1.10,2013-01-28 00:46:00,
2013-01-27 19:01:00,51.4,49.0,29.89,SW,217,10.0,14.0,90,0.00,,,0.15,weatherlink.com 1.10,2013-01-28 01:01:00,
2013-01-27 19:16:00,51.2,48.0,29.89,SSW,201,10.0,12.0,90,0.00,,,0.15,weatherlink.com 1.10,2013-01-28 01:16:00,
2013-01-27 19:31:00,51.2,49.0,29.89,South,189,7.0,15.0,91,0.00,,,0.15,weatherlink.com 1.10,2013-01-28 01:31:00,
2013-01-27 19:46:00,51.1,49.0,29.90,South,190,12.0,15.0,91,0.00,,,0.15,weatherlink.com 1.10,2013-01-28 01:46:00,
2013-01-27 20:01:00,51.1,49.0,29.90,SSW,210,6.0,21.0,91,0.00,,,0.15,weatherlink.com 1.10,2013-01-28 02:01:00,
2013-01-27 20:16:00,51.3,49.0,29.89,SSW,194,6.0,19.0,91,0.00,,,0.15,weatherlink.com 1.10,2013-01-28 02:16:00,
2013-01-27 20:31:00,51.7,49.0,29.90,SSW,203,15.0,17.0,91,0.00,,,0.15,weatherlink.com 1.10,2013-01-28 02:31:00,
2013-01-27 20:46:00,52.3,50.0,29.90,SSW,196,6.0,16.0,90,0.00,,,0.15,weatherlink.com 1.10,2013-01-28 02:46:00,
2013-01-27 21:01:00,52.6,50.0,29.89,South,175,4.0,14.0,91,0.00,,,0.15,weatherlink.com 1.10,2013-01-28 03:01:00,
2013-01-27 21:16:00,52.7,50.0,29.90,SSW,194,10.0,14.0,90,0.00,,,0.15,weatherlink.com 1.10,2013-01-28 03:16:00,
2013-01-27 21:31:00,53.2,50.0,29.90,SSW,213,3.0,14.0,90,0.00,,,0.15,weatherlink.com 1.10,2013-01-28 03:31:00,
2013-01-27 21:46:00,53.7,51.0,29.91,SW,227,5.0,14.0,89,0.00,,,0.15,weatherlink.com 1.10,2013-01-28 03:46:00,
2013-01-27 22:01:00,54.0,51.0,29.90,SSW,196,5.0,15.0,89,0.00,,,0.15,weatherlink.com 1.10,2013-01-28 04:01:00,
2013-01-27 22:17:00,54.8,52.0,29.90,SSW,212,6.0,18.0,89,0.00,,,0.15,weatherlink.com 1.10,2013-01-28 04:17:00,
2013-01-27 22:32:00,54.8,51.0,29.90,South,190,8.0,15.0,88,0.00,,,0.15,weatherlink.com 1.10,2013-01-28 04:32:00,
2013-01-27 22:47:00,55.0,52.0,29.90,SSW,205,7.0,17.0,88,0.00,,,0.15,weatherlink.com 1.10,2013-01-28 04:47:00,
2013-01-27 23:17:00,55.3,52.0,29.90,South,186,8.0,18.0,88,0.00,,,0.15,weatherlink.com 1.10,2013-01-28 05:17:00,
2013-01-27 23:32:00,55.2,52.0,29.91,SSW,192,8.0,14.0,88,0.00,,,0.15,weatherlink.com 1.10,2013-01-28 05:32:00,
2013-01-27 23:47:00,55.3,52.0,29.91,South,173,8.0,13.0,88,0.00,,,0.15,weatherlink.com 1.10,2013-01-28 05:47:00,